Time;durP1;ratioP1;P1;durP2;ratioP2;P2;SDS_P1;SDS_P2;PMS_P1;PMS_P2;Temp;Humidity;BMP_temperature;BMP_pressure;BME280_temperature;BME280_humidity;BME280_pressure;Samples;Min_cycle;Max_cycle;Signal;HPM_P1;HPM_P2
2022/07/03 00:00:08;;;;;;;4.93;3.03;;;15.30;73.90;;;;;;4974977;28;20458;-84
2022/07/03 00:02:35;;;;;;;5.77;5.23;;;15.20;75.80;;;;;;4975032;28;20455;-85
2022/07/03 00:05:02;;;;;;;6.40;5.90;;;15.20;79.50;;;;;;4975059;28;20847;-83
2022/07/03 00:07:29;;;;;;;10.20;9.47;;;15.10;79.90;;;;;;4975706;28;20479;-84
2022/07/03 00:09:55;;;;;;;10.33;9.43;;;15.10;82.60;;;;;;4975720;28;20470;-85
2022/07/03 00:12:22;;;;;;;11.77;11.00;;;15.10;83.10;;;;;;4975966;28;20466;-84
2022/07/03 00:14:51;;;;;;;17.83;16.87;;;15.00;85.30;;;;;;4975522;28;20461;-84
2022/07/03 00:17:18;;;;;;;16.00;15.10;;;15.00;86.20;;;;;;4975382;28;20485;-85
2022/07/03 00:19:44;;;;;;;20.37;18.60;;;14.90;86.10;;;;;;4975105;28;20451;-84
2022/07/03 00:22:13;;;;;;;39.67;37.97;;;14.90;87.30;;;;;;4974676;28;20482;-84
2022/07/03 00:24:44;;;;;;;52.17;49.90;;;14.90;88.40;;;;;;4975111;28;21031;-84
2022/07/03 00:27:12;;;;;;;61.03;58.77;;;14.80;89.00;;;;;;4975224;28;20479;-84
2022/07/03 00:29:42;;;;;;;49.23;47.30;;;14.80;89.10;;;;;;4975704;28;20455;-85
2022/07/03 00:32:12;;;;;;;55.00;52.93;;;14.70;88.90;;;;;;4975792;28;20535;-84
2022/07/03 00:34:40;;;;;;;58.07;55.67;;;14.60;88.80;;;;;;4974571;28;20458;-84
2022/07/03 00:37:08;;;;;;;36.90;35.13;;;14.70;87.40;;;;;;4975067;28;20866;-84
2022/07/03 00:39:37;;;;;;;14.70;13.80;;;14.90;85.40;;;;;;4975141;28;20462;-85
2022/07/03 00:42:06;;;;;;;6.53;5.90;;;15.10;81.60;;;;;;4974537;28;20463;-84
2022/07/03 00:44:35;;;;;;;8.60;5.40;;;15.20;78.60;;;;;;4974376;28;20469;-84
2022/07/03 00:47:03;;;;;;;5.60;4.63;;;15.30;78.20;;;;;;4974677;28;20455;-85
2022/07/03 00:49:34;;;;;;;6.60;4.33;;;15.30;76.60;;;;;;4975268;28;20489;-84
2022/07/03 00:52:05;;;;;;;10.73;4.00;;;15.30;75.70;;;;;;4975061;28;20455;-84
2022/07/03 00:54:34;;;;;;;7.13;3.00;;;15.30;77.20;;;;;;4974221;28;20459;-84
2022/07/03 00:57:02;;;;;;;6.13;3.63;;;15.20;78.10;;;;;;4975159;28;20462;-84
2022/07/03 00:59:30;;;;;;;5.90;2.90;;;15.20;77.90;;;;;;4975319;28;20974;-84
2022/07/03 01:02:04;;;;;;;4.97;3.70;;;15.10;77.70;;;;;;4974826;28;20462;-85
2022/07/03 01:04:40;;;;;;;10.00;9.30;;;15.00;82.30;;;;;;4975327;28;20454;-85
2022/07/03 01:07:13;;;;;;;15.87;15.07;;;15.00;86.90;;;;;;4976917;28;20475;-84
2022/07/03 01:09:52;;;;;;;24.40;23.20;;;14.90;87.90;;;;;;4976546;28;20879;-84
2022/07/03 01:12:27;;;;;;;37.90;36.30;;;14.80;89.90;;;;;;4977116;28;20454;-85
2022/07/03 01:15:04;;;;;;;22.07;20.87;;;14.80;90.10;;;;;;4977374;28;20977;-84
2022/07/03 01:17:35;;;;;;;37.43;35.83;;;14.60;88.80;;;;;;4976795;28;20474;-85
2022/07/03 01:20:06;;;;;;;38.27;36.33;;;14.60;90.10;;;;;;4977454;28;20463;-85
2022/07/03 01:22:35;;;;;;;25.20;24.00;;;14.50;90.20;;;;;;4979796;28;20892;-84
2022/07/03 01:25:22;;;;;;;35.10;33.40;;;14.40;90.10;;;;;;4979452;28;20485;-84
2022/07/03 01:27:58;;;;;;;67.63;65.10;;;14.50;91.40;;;;;;4979215;28;20475;-84
2022/07/03 01:30:27;;;;;;;41.23;39.23;;;14.70;91.00;;;;;;4980906;28;20517;-84
2022/07/03 01:33:00;;;;;;;42.17;40.37;;;14.60;90.20;;;;;;4980365;28;20454;-84
2022/07/03 01:35:34;;;;;;;25.20;23.87;;;14.60;89.50;;;;;;4982605;28;20454;-84
2022/07/03 01:38:06;;;;;;;20.73;19.50;;;14.50;89.40;;;;;;4981712;28;20487;-84
2022/07/03 01:40:35;;;;;;;19.63;18.30;;;14.40;88.70;;;;;;4981386;28;20454;-85
2022/07/03 01:43:07;;;;;;;33.67;32.07;;;14.40;88.90;;;;;;4982291;28;20542;-84
2022/07/03 01:45:39;;;;;;;45.97;44.07;;;14.30;90.60;;;;;;4979572;28;20479;-84
2022/07/03 01:48:08;;;;;;;49.03;46.93;;;14.30;91.20;;;;;;4980445;28;20485;-84
2022/07/03 01:50:37;;;;;;;56.70;54.10;;;14.20;91.40;;;;;;4981466;28;20521;-83
2022/07/03 01:53:06;;;;;;;80.70;77.43;;;14.20;92.20;;;;;;4979855;28;20450;-84
2022/07/03 01:55:34;;;;;;;80.13;76.93;;;14.20;93.10;;;;;;4978667;28;20463;-82
2022/07/03 01:58:02;;;;;;;177.60;171.60;;;14.10;92.70;;;;;;4977865;28;20479;-84
2022/07/03 02:00:31;;;;;;;233.70;225.77;;;14.20;94.50;;;;;;4977700;28;20455;-84
2022/07/03 02:03:01;;;;;;;223.77;216.20;;;14.20;95.40;;;;;;4978295;28;20470;-84
2022/07/03 02:05:32;;;;;;;238.93;230.67;;;14.20;95.30;;;;;;4978664;28;20490;-82
2022/07/03 02:08:08;;;;;;;274.73;264.93;;;14.20;95.30;;;;;;4978781;28;20821;-84
2022/07/03 02:10:39;;;;;;;267.40;258.03;;;14.30;96.00;;;;;;4978817;28;20454;-84
2022/07/03 02:13:14;;;;;;;244.87;236.07;;;14.20;96.10;;;;;;4979410;28;20506;-84
2022/07/03 02:15:45;;;;;;;195.23;188.47;;;14.20;96.00;;;;;;4979015;28;20453;-84
2022/07/03 02:18:24;;;;;;;203.63;196.33;;;14.20;95.70;;;;;;4978305;28;20486;-85
2022/07/03 02:21:05;;;;;;;185.40;178.97;;;14.20;96.70;;;;;;4978418;28;20959;-84
2022/07/03 02:23:36;;;;;;;202.10;194.87;;;14.00;95.80;;;;;;4979347;28;20490;-84
2022/07/03 02:26:06;;;;;;;185.63;179.13;;;14.00;96.20;;;;;;4978380;28;20489;-84
2022/07/03 02:28:46;;;;;;;181.63;174.80;;;14.00;96.00;;;;;;4978414;28;20486;-84
2022/07/03 02:31:19;;;;;;;210.20;202.60;;;14.00;96.00;;;;;;4978404;28;20943;-85
2022/07/03 02:33:48;;;;;;;153.43;148.00;;;13.90;97.20;;;;;;4978583;28;20470;-84
2022/07/03 02:36:19;;;;;;;196.67;189.87;;;13.80;96.40;;;;;;4978252;28;20957;-84
2022/07/03 02:38:51;;;;;;;256.30;247.03;;;13.70;97.30;;;;;;4977856;28;20481;-85
2022/07/03 02:41:24;;;;;;;240.77;232.17;;;13.70;98.10;;;;;;4978877;28;20455;-85
2022/07/03 02:44:05;;;;;;;281.97;271.70;;;13.70;98.20;;;;;;4978361;28;20454;-84
2022/07/03 02:46:51;;;;;;;329.67;317.50;;;13.70;99.50;;;;;;4977956;28;20490;-85
2022/07/03 02:49:33;;;;;;;304.30;293.20;;;13.70;99.20;;;;;;4978069;28;20454;-85
2022/07/03 02:52:11;;;;;;;267.77;258.37;;;13.60;99.10;;;;;;4978566;28;20470;-83
2022/07/03 02:54:45;;;;;;;316.50;304.50;;;13.60;99.10;;;;;;4977791;28;20455;-84
2022/07/03 02:57:14;;;;;;;309.37;297.70;;;13.60;99.90;;;;;;4978241;28;20474;-83
2022/07/03 02:59:53;;;;;;;332.87;320.27;;;13.60;99.90;;;;;;4978746;28;20451;-84
2022/07/03 03:02:33;;;;;;;296.67;285.40;;;13.60;99.90;;;;;;4978262;28;20458;-84
2022/07/03 03:05:04;;;;;;;280.90;270.10;;;13.60;99.40;;;;;;4978261;28;20454;-84
2022/07/03 03:07:35;;;;;;;276.83;266.87;;;13.60;99.10;;;;;;4977632;28;20483;-82
2022/07/03 03:10:02;;;;;;;270.90;261.23;;;13.60;99.10;;;;;;4977448;28;20451;-84
2022/07/03 03:12:32;;;;;;;251.53;242.93;;;13.60;99.10;;;;;;4978052;28;20470;-84
2022/07/03 03:15:02;;;;;;;279.20;269.63;;;13.50;99.10;;;;;;4981278;28;20455;-84
2022/07/03 03:17:37;;;;;;;260.90;251.77;;;13.50;99.10;;;;;;4980612;28;20486;-84
2022/07/03 03:20:05;;;;;;;261.00;251.80;;;13.50;99.00;;;;;;4978035;28;20458;-84
2022/07/03 03:22:46;;;;;;;301.20;290.50;;;13.40;99.00;;;;;;4975968;28;21049;-83
2022/07/03 03:25:13;;;;;;;387.10;372.57;;;13.40;99.80;;;;;;4975584;28;20986;-84
2022/07/03 03:27:40;;;;;;;354.00;341.50;;;13.40;99.90;;;;;;4975606;28;20498;-85
2022/07/03 03:30:08;;;;;;;388.63;374.10;;;13.30;99.90;;;;;;4975854;28;20455;-84
2022/07/03 03:32:37;;;;;;;368.37;354.47;;;13.30;99.90;;;;;;4976556;28;20458;-84
2022/07/03 03:35:04;;;;;;;396.40;380.90;;;13.20;99.90;;;;;;4975773;28;20455;-84
2022/07/03 03:37:31;;;;;;;387.23;371.93;;;13.20;99.90;;;;;;4976172;28;20473;-84
2022/07/03 03:39:58;;;;;;;365.57;351.23;;;13.20;99.90;;;;;;4976412;28;20467;-84
2022/07/03 03:42:25;;;;;;;348.20;334.73;;;13.30;99.90;;;;;;4976459;28;20548;-84
2022/07/03 03:44:52;;;;;;;310.00;298.53;;;13.30;99.90;;;;;;4980039;28;20463;-84
2022/07/03 03:47:19;;;;;;;292.40;281.77;;;13.30;99.90;;;;;;4980294;28;20493;-84
2022/07/03 03:49:47;;;;;;;294.10;283.60;;;13.30;99.90;;;;;;4978436;28;20459;-84
2022/07/03 03:52:14;;;;;;;320.23;308.47;;;13.40;99.90;;;;;;4976575;28;20456;-84
2022/07/03 03:54:41;;;;;;;363.13;349.13;;;13.60;99.90;;;;;;4976515;28;20459;-84
2022/07/03 03:57:19;;;;;;;408.60;392.23;;;13.70;99.90;;;;;;4976254;28;20478;-84
2022/07/03 03:59:46;;;;;;;359.13;345.03;;;14.00;99.90;;;;;;4976301;28;20833;-84
2022/07/03 04:02:13;;;;;;;302.53;291.20;;;14.00;99.90;;;;;;4975690;28;20462;-84
2022/07/03 04:04:40;;;;;;;273.57;263.37;;;14.00;99.90;;;;;;4974701;28;20852;-85
2022/07/03 04:07:08;;;;;;;240.70;232.60;;;14.10;99.30;;;;;;4974810;28;20491;-84
2022/07/03 04:09:35;;;;;;;203.67;197.00;;;14.00;99.30;;;;;;4975319;28;20463;-84
2022/07/03 04:12:03;;;;;;;212.67;205.43;;;14.10;98.60;;;;;;4975468;28;20455;-84
2022/07/03 04:14:30;;;;;;;191.43;185.07;;;14.20;98.90;;;;;;4976382;28;20814;-84
2022/07/03 04:16:56;;;;;;;184.13;178.07;;;14.40;97.90;;;;;;4975741;28;20540;-84
2022/07/03 04:19:23;;;;;;;146.67;141.57;;;14.50;97.40;;;;;;4974680;28;20947;-84
2022/07/03 04:21:51;;;;;;;180.77;174.70;;;14.60;96.70;;;;;;4974526;28;20451;-84
2022/07/03 04:24:19;;;;;;;235.77;228.00;;;14.70;97.10;;;;;;4975223;28;20505;-84
2022/07/03 04:26:46;;;;;;;235.27;227.40;;;14.70;97.80;;;;;;4974209;28;20874;-84
2022/07/03 04:29:13;;;;;;;181.77;175.67;;;14.90;97.30;;;;;;4974195;28;20521;-84
2022/07/03 04:31:40;;;;;;;199.13;192.10;;;14.90;95.90;;;;;;4974165;28;20955;-84
2022/07/03 04:34:07;;;;;;;160.70;155.20;;;15.00;96.10;;;;;;4973897;28;20474;-84
2022/07/03 04:36:34;;;;;;;147.73;142.53;;;15.10;95.30;;;;;;4974051;28;20451;-85
2022/07/03 04:39:00;;;;;;;116.37;112.10;;;15.20;94.90;;;;;;4974121;28;20478;-84
2022/07/03 04:41:28;;;;;;;95.07;91.53;;;15.20;94.30;;;;;;4974123;28;20466;-84
2022/07/03 04:43:55;;;;;;;67.60;64.90;;;15.20;94.30;;;;;;4973699;28;20471;-84
2022/07/03 04:46:23;;;;;;;43.80;41.80;;;15.30;93.60;;;;;;4974003;28;21194;-84
2022/07/03 04:48:49;;;;;;;69.90;67.30;;;15.20;93.10;;;;;;4974115;28;21058;-83
2022/07/03 04:51:16;;;;;;;82.53;79.27;;;15.20;94.30;;;;;;4974470;28;20454;-84
2022/07/03 04:53:43;;;;;;;99.97;96.27;;;15.30;94.70;;;;;;4974184;28;20463;-84
2022/07/03 04:56:10;;;;;;;85.13;81.93;;;15.30;95.20;;;;;;4974314;28;20916;-84
2022/07/03 04:58:38;;;;;;;93.53;89.37;;;15.40;94.60;;;;;;4973924;28;20479;-83
2022/07/03 05:01:05;;;;;;;107.90;103.90;;;15.30;95.20;;;;;;4974189;28;20659;-84
2022/07/03 05:03:31;;;;;;;102.37;98.67;;;15.30;95.60;;;;;;4977690;28;20455;-84
2022/07/03 05:05:59;;;;;;;83.47;80.27;;;15.40;95.20;;;;;;4977916;28;20850;-84
2022/07/03 05:08:25;;;;;;;125.43;121.13;;;15.40;94.90;;;;;;4978103;28;20495;-85
2022/07/03 05:10:52;;;;;;;170.60;164.97;;;15.60;95.60;;;;;;4977532;28;20459;-84
2022/07/03 05:13:19;;;;;;;186.30;180.00;;;15.60;96.50;;;;;;4977884;28;20493;-84
2022/07/03 05:15:47;;;;;;;208.70;201.40;;;15.70;96.40;;;;;;4977464;28;20465;-85
2022/07/03 05:18:14;;;;;;;247.03;237.83;;;15.70;96.80;;;;;;4977539;28;20470;-85
2022/07/03 05:20:41;;;;;;;270.87;261.17;;;15.90;97.50;;;;;;4978070;28;20459;-84
2022/07/03 05:23:07;;;;;;;186.57;180.10;;;16.20;97.60;;;;;;4977439;28;20461;-84
2022/07/03 05:25:34;;;;;;;99.43;95.67;;;16.50;96.50;;;;;;4977624;28;20465;-84
2022/07/03 05:28:02;;;;;;;9.10;3.93;;;17.50;96.20;;;;;;4976795;28;20489;-85
2022/07/03 05:30:28;;;;;;;9.97;2.77;;;18.30;90.20;;;;;;4977091;28;20483;-84
2022/07/03 05:32:56;;;;;;;6.27;2.17;;;18.90;83.80;;;;;;4976712;28;20468;-84
2022/07/03 05:35:23;;;;;;;7.50;2.80;;;19.20;78.00;;;;;;4976566;28;20457;-85
2022/07/03 05:37:50;;;;;;;5.97;2.23;;;19.50;76.20;;;;;;4976967;28;20478;-84
2022/07/03 05:40:17;;;;;;;7.27;3.23;;;19.80;69.70;;;;;;4976777;28;20461;-84
2022/07/03 05:42:44;;;;;;;8.90;3.13;;;20.00;67.00;;;;;;4977193;28;20558;-84
2022/07/03 05:45:11;;;;;;;8.13;3.43;;;20.30;58.50;;;;;;4976931;28;20544;-86
2022/07/03 05:47:38;;;;;;;8.87;3.40;;;20.60;57.90;;;;;;4976883;28;20483;-84
2022/07/03 05:50:07;;;;;;;8.37;3.10;;;21.00;56.60;;;;;;4976826;28;20462;-84
2022/07/03 05:52:34;;;;;;;8.73;2.87;;;21.00;53.30;;;;;;4977453;28;20482;-84
2022/07/03 05:55:16;;;;;;;8.27;3.40;;;21.30;50.20;;;;;;4976587;28;20447;-84
2022/07/03 05:57:52;;;;;;;10.50;3.63;;;21.40;48.30;;;;;;4973618;28;20496;-84
2022/07/03 06:00:38;;;;;;;7.10;3.70;;;21.60;51.80;;;;;;4975511;28;20830;-85
2022/07/03 06:03:05;;;;;;;7.90;3.90;;;21.70;45.90;;;;;;4975791;28;20822;-84
2022/07/03 06:05:51;;;;;;;7.63;4.03;;;21.70;45.90;;;;;;4975344;28;20459;-85
2022/07/03 06:08:17;;;;;;;9.60;4.57;;;21.60;45.80;;;;;;4974738;28;20482;-85
2022/07/03 06:10:50;;;;;;;10.67;3.93;;;21.60;45.20;;;;;;4975590;28;20461;-83
2022/07/03 06:13:17;;;;;;;11.20;4.30;;;21.80;46.00;;;;;;4975587;28;20567;-84
2022/07/03 06:15:44;;;;;;;9.50;4.90;;;21.80;45.70;;;;;;4975654;28;20533;-84
2022/07/03 06:18:10;;;;;;;10.40;4.30;;;22.00;43.60;;;;;;4976095;28;20490;-84
2022/07/03 06:20:37;;;;;;;7.63;3.70;;;22.20;43.50;;;;;;4976168;28;20518;-84
2022/07/03 06:23:05;;;;;;;9.40;4.40;;;22.20;44.80;;;;;;4978160;28;20481;-84
2022/07/03 06:25:36;;;;;;;11.80;4.23;;;22.40;44.40;;;;;;4979034;28;20462;-84
2022/07/03 06:28:03;;;;;;;12.67;4.10;;;22.70;40.80;;;;;;4978379;28;21032;-81
2022/07/03 06:30:32;;;;;;;9.20;3.93;;;22.50;39.30;;;;;;4978573;28;20959;-84
2022/07/03 06:32:59;;;;;;;8.33;4.07;;;22.60;39.10;;;;;;4977708;28;20450;-84
2022/07/03 06:35:26;;;;;;;9.00;4.00;;;22.60;37.80;;;;;;4977495;28;20469;-84
2022/07/03 06:37:53;;;;;;;10.43;5.17;;;22.70;37.80;;;;;;4977342;28;20475;-84
2022/07/03 06:40:21;;;;;;;9.70;4.70;;;22.70;37.80;;;;;;4978431;28;20453;-83
2022/07/03 06:42:52;;;;;;;11.07;4.23;;;22.70;37.20;;;;;;4978046;28;20455;-84
2022/07/03 06:45:19;;;;;;;12.67;4.27;;;22.90;37.30;;;;;;4979342;28;20465;-84
2022/07/03 06:47:51;;;;;;;11.77;5.63;;;22.90;35.60;;;;;;4977970;28;20557;-84
2022/07/03 06:53:55;;;;;;;9.80;4.47;;;22.90;36.30;;;;;;4976888;28;20541;-87
2022/07/03 06:57:18;;;;;;;7.23;4.33;;;23.00;33.50;;;;;;4975880;28;20462;-86
2022/07/03 07:02:59;;;;;;;6.80;3.80;;;23.40;37.10;;;;;;4956510;28;20454;-86
2022/07/03 07:05:41;;;;;;;8.80;4.07;;;23.40;35.20;;;;;;4975860;28;20959;-87
2022/07/03 07:08:11;;;;;;;11.00;4.30;;;23.30;32.90;;;;;;4982315;28;20577;-85
2022/07/03 07:10:38;;;;;;;8.50;3.60;;;23.30;32.90;;;;;;4982690;28;20515;-82
2022/07/03 07:13:10;;;;;;;9.67;3.60;;;23.30;32.90;;;;;;4982902;28;20491;-84
2022/07/03 07:15:38;;;;;;;10.87;4.13;;;23.60;30.90;;;;;;4980609;28;20467;-84
2022/07/03 07:18:05;;;;;;;10.73;4.37;;;23.80;31.90;;;;;;4981462;28;20475;-83
2022/07/03 07:20:32;;;;;;;6.90;4.13;;;24.30;34.00;;;;;;4977972;28;20495;-83
2022/07/03 07:22:59;;;;;;;7.57;3.53;;;24.40;28.40;;;;;;4977018;28;20943;-85
2022/07/03 07:25:25;;;;;;;15.40;4.30;;;24.20;27.70;;;;;;4975093;28;20542;-84
2022/07/03 07:27:52;;;;;;;7.60;3.00;;;24.20;29.80;;;;;;4959605;28;20489;-84
2022/07/03 07:30:19;;;;;;;8.23;3.50;;;24.30;28.00;;;;;;4956994;29;20435;-84
2022/07/03 07:32:47;;;;;;;8.00;3.60;;;24.50;27.30;;;;;;4957304;29;20452;-84
2022/07/03 07:35:14;;;;;;;7.33;4.23;;;24.80;27.80;;;;;;4956748;29;20456;-85
2022/07/03 07:38:12;;;;;;;11.40;3.67;;;24.90;26.30;;;;;;4956933;29;20482;-84
2022/07/03 07:41:08;;;;;;;8.50;3.10;;;24.50;26.20;;;;;;4953334;29;20466;-85
2022/07/03 07:43:46;;;;;;;6.70;3.00;;;24.50;27.10;;;;;;4954622;29;20484;-85
2022/07/03 07:47:12;;;;;;;8.97;3.70;;;24.40;24.20;;;;;;4962602;28;20851;-85
2022/07/03 07:49:44;;;;;;;5.80;2.60;;;24.70;26.70;;;;;;4974501;28;20462;-84
2022/07/03 07:52:14;;;;;;;8.27;3.40;;;24.70;24.30;;;;;;4975296;28;20456;-86
2022/07/03 07:54:55;;;;;;;8.40;3.20;;;24.90;23.20;;;;;;4975308;28;20465;-85
2022/07/03 07:57:25;;;;;;;8.33;3.37;;;25.20;23.40;;;;;;4976252;28;21055;-84
2022/07/03 07:59:54;;;;;;;7.10;3.07;;;25.30;23.10;;;;;;4967805;28;20463;-84
2022/07/03 08:08:00;;;;;;;8.40;3.07;;;25.60;22.70;;;;;;4976622;28;20486;-84
2022/07/03 08:10:35;;;;;;;8.60;3.03;;;25.90;17.90;;;;;;4975083;28;20442;-85
2022/07/03 08:13:01;;;;;;;9.40;2.83;;;26.20;18.20;;;;;;4975315;28;20432;-85
2022/07/03 08:15:28;;;;;;;5.80;2.47;;;26.20;17.60;;;;;;4975913;28;20452;-84
2022/07/03 08:17:55;;;;;;;5.70;2.13;;;26.40;16.60;;;;;;4975013;28;20854;-84
2022/07/03 08:20:30;;;;;;;5.90;2.33;;;26.40;15.90;;;;;;4975135;28;20524;-84
2022/07/03 08:22:58;;;;;;;5.40;2.20;;;26.50;15.50;;;;;;4982422;23;20924;-83
2022/07/03 08:25:25;;;;;;;5.07;2.13;;;26.50;16.60;;;;;;4939760;29;20504;-83
2022/07/03 08:27:52;;;;;;;5.43;2.20;;;26.60;16.70;;;;;;4939504;29;20476;-82
2022/07/03 08:30:19;;;;;;;5.63;1.80;;;27.10;15.00;;;;;;4939902;29;20460;-82
2022/07/03 08:32:46;;;;;;;7.17;2.20;;;26.90;12.30;;;;;;4945818;29;20958;-82
2022/07/03 08:35:13;;;;;;;7.40;1.80;;;27.00;9.20;;;;;;4958084;29;20462;-83
2022/07/03 08:37:42;;;;;;;5.57;2.03;;;26.40;12.20;;;;;;4958232;28;20452;-83
2022/07/03 08:40:10;;;;;;;8.57;2.07;;;26.10;14.10;;;;;;4958847;29;20438;-83
2022/07/03 08:42:38;;;;;;;5.30;2.23;;;25.80;15.40;;;;;;4959163;29;20487;-83
2022/07/03 08:45:08;;;;;;;7.40;2.20;;;26.40;12.80;;;;;;4971599;28;20433;-82
2022/07/03 08:47:38;;;;;;;7.43;1.70;;;26.70;12.10;;;;;;4978634;28;20478;-82
2022/07/03 08:50:06;;;;;;;6.43;2.30;;;26.70;10.70;;;;;;4978569;28;20455;-82
2022/07/03 08:52:34;;;;;;;7.17;2.27;;;26.90;9.70;;;;;;4978574;28;20479;-82
2022/07/03 08:55:03;;;;;;;6.70;2.00;;;27.20;7.60;;;;;;4978252;28;20459;-83
2022/07/03 08:57:32;;;;;;;7.43;2.60;;;27.50;9.50;;;;;;4978197;28;20454;-83
2022/07/03 09:00:04;;;;;;;6.90;2.00;;;27.40;9.40;;;;;;4977406;28;20455;-83
2022/07/03 09:02:31;;;;;;;5.50;1.83;;;27.60;9.00;;;;;;4978611;28;20479;-82
2022/07/03 09:04:59;;;;;;;6.27;2.10;;;27.90;7.30;;;;;;4978936;28;20481;-83
2022/07/03 09:07:28;;;;;;;7.77;2.33;;;27.90;9.70;;;;;;4977593;28;20475;-82
2022/07/03 09:09:56;;;;;;;5.30;2.30;;;28.20;6.70;;;;;;4977980;28;20455;-83
2022/07/03 09:12:24;;;;;;;7.77;2.20;;;27.80;9.70;;;;;;4978598;28;20478;-82
2022/07/03 09:14:51;;;;;;;7.67;2.30;;;28.10;6.80;;;;;;4978544;28;20454;-83
2022/07/03 09:17:19;;;;;;;10.37;2.20;;;28.10;6.10;;;;;;4978192;28;20451;-81
2022/07/03 09:19:47;;;;;;;7.33;2.40;;;27.60;4.70;;;;;;4977039;28;20458;-83
2022/07/03 09:22:22;;;;;;;6.43;3.50;;;26.90;9.20;;;;;;4977394;28;21276;-81
2022/07/03 09:24:50;;;;;;;5.80;2.17;;;27.20;8.40;;;;;;4978336;28;20429;-83
2022/07/03 09:27:18;;;;;;;6.40;2.50;;;28.30;6.40;;;;;;4978965;28;20456;-83
2022/07/03 09:29:59;;;;;;;9.40;3.23;;;28.10;1.90;;;;;;4979027;28;20455;-82
2022/07/03 09:32:25;;;;;;;7.80;2.90;;;28.00;3.10;;;;;;4979093;28;20453;-83
2022/07/03 09:35:10;;;;;;;6.90;2.60;;;28.50;4.70;;;;;;4979117;28;20469;-83
2022/07/03 09:37:37;;;;;;;7.03;2.27;;;28.70;2.30;;;;;;4980316;28;20447;-83
2022/07/03 09:40:05;;;;;;;9.03;2.50;;;28.90;2.50;;;;;;4979631;28;20455;-82
2022/07/03 09:42:31;;;;;;;5.70;2.50;;;28.50;5.00;;;;;;4979101;28;20456;-83
2022/07/03 09:44:59;;;;;;;6.10;2.70;;;28.10;3.70;;;;;;4977938;28;20454;-81
2022/07/03 09:47:27;;;;;;;7.23;2.70;;;27.80;7.40;;;;;;4976182;28;20471;-84
2022/07/03 09:49:55;;;;;;;10.30;3.00;;;27.90;7.10;;;;;;4981174;28;20467;-84
2022/07/03 09:52:35;;;;;;;7.27;2.90;;;27.50;5.20;;;;;;4983202;28;20453;-83
2022/07/03 09:55:12;;;;;;;6.43;2.47;;;27.70;5.10;;;;;;4981923;28;20429;-84
2022/07/03 09:57:40;;;;;;;5.37;2.77;;;27.90;3.70;;;;;;4983258;28;20980;-83
2022/07/03 10:00:13;;;;;;;5.50;2.60;;;28.30;2.10;;;;;;4982805;28;20959;-84
2022/07/03 10:02:57;;;;;;;5.97;2.50;;;28.50;2.20;;;;;;4982685;28;20474;-83
2022/07/03 10:05:25;;;;;;;10.60;3.10;;;28.60;2.20;;;;;;4982152;28;20458;-83
2022/07/03 10:07:54;;;;;;;10.33;3.63;;;28.10;3.20;;;;;;4985299;28;20502;-83
2022/07/03 10:10:22;;;;;;;6.60;2.70;;;28.20;5.60;;;;;;4985086;28;20459;-83
2022/07/03 10:12:50;;;;;;;5.37;2.40;;;28.10;4.20;;;;;;4986062;28;20471;-83
2022/07/03 10:15:20;;;;;;;9.07;3.20;;;28.00;2.40;;;;;;4982378;28;20458;-82
2022/07/03 10:17:49;;;;;;;8.77;2.77;;;27.90;9.70;;;;;;4980414;28;20959;-80
2022/07/03 10:20:23;;;;;;;8.27;2.23;;;28.10;3.40;;;;;;4982465;28;20463;-82
2022/07/03 10:22:51;;;;;;;6.70;2.00;;;28.50;6.60;;;;;;4980914;28;20487;-82
2022/07/03 10:25:19;;;;;;;6.43;2.23;;;28.70;1.10;;;;;;4980589;28;20462;-82
2022/07/03 10:27:46;;;;;;;4.67;1.83;;;29.70;1.00;;;;;;4981207;28;20457;-82
2022/07/03 10:30:15;;;;;;;5.50;1.73;;;30.20;1.00;;;;;;4980871;28;20488;-83
2022/07/03 10:32:45;;;;;;;5.30;1.60;;;30.10;1.00;;;;;;4981527;28;20475;-83
2022/07/03 10:35:14;;;;;;;7.03;2.03;;;30.60;1.00;;;;;;4980775;28;20449;-82
2022/07/03 10:37:59;;;;;;;6.23;2.20;;;30.70;1.00;;;;;;4981176;28;20425;-84
2022/07/03 10:46:16;;;;;;;4.33;1.57;;;31.10;1.00;;;;;;4982592;28;20413;-83
2022/07/03 10:48:57;;;;;;;6.83;2.10;;;31.20;1.00;;;;;;4981730;28;20453;-83
2022/07/03 10:51:25;;;;;;;6.47;1.77;;;30.50;1.00;;;;;;4981068;28;20455;-83
2022/07/03 10:54:15;;;;;;;7.20;1.70;;;30.20;1.00;;;;;;4980148;28;20462;-83
2022/07/03 10:57:15;;;;;;;5.93;1.67;;;29.30;1.00;;;;;;4980439;28;20466;-84
2022/07/03 11:00:01;;;;;;;5.17;1.67;;;30.30;1.00;;;;;;4980105;28;20457;-83
2022/07/03 11:02:32;;;;;;;5.00;1.20;;;30.60;1.00;;;;;;4980553;28;20533;-83
2022/07/03 11:05:21;;;;;;;4.67;1.53;;;31.30;1.00;;;;;;4979764;28;20466;-83
2022/07/03 11:08:13;;;;;;;4.20;1.37;;;31.20;1.00;;;;;;4981435;28;20489;-84
2022/07/03 11:10:42;;;;;;;5.80;1.93;;;31.00;1.00;;;;;;4981753;28;20460;-83
2022/07/03 11:13:16;;;;;;;7.67;2.40;;;31.90;1.00;;;;;;4981766;28;20449;-83
2022/07/03 11:15:46;;;;;;;6.90;1.90;;;31.60;1.00;;;;;;4981804;28;20452;-84
2022/07/03 11:18:21;;;;;;;4.80;1.30;;;31.40;1.00;;;;;;4981260;28;20554;-83
2022/07/03 11:21:17;;;;;;;7.50;2.30;;;31.60;1.00;;;;;;4981604;28;20477;-84
2022/07/03 11:24:00;;;;;;;4.70;1.90;;;31.50;1.00;;;;;;4978500;28;20465;-84
2022/07/03 11:26:27;;;;;;;6.03;2.10;;;30.70;1.00;;;;;;4976229;28;20457;-84
2022/07/03 11:28:54;;;;;;;5.77;1.83;;;30.00;1.00;;;;;;4975285;28;20479;-84
2022/07/03 11:31:23;;;;;;;5.70;1.63;;;29.60;1.00;;;;;;4975703;28;20528;-84
2022/07/03 11:33:57;;;;;;;4.23;1.50;;;30.40;1.00;;;;;;4976649;28;20478;-83
2022/07/03 11:36:27;;;;;;;6.53;1.77;;;29.60;1.00;;;;;;4978262;28;20466;-84
2022/07/03 11:39:13;;;;;;;6.80;2.40;;;29.10;1.00;;;;;;4977028;28;20453;-84
2022/07/03 11:41:45;;;;;;;10.60;1.93;;;29.80;1.00;;;;;;4976590;28;20458;-84
2022/07/03 11:44:19;;;;;;;4.50;1.80;;;30.50;1.00;;;;;;4975836;28;21006;-83
2022/07/03 11:46:53;;;;;;;4.50;1.87;;;30.80;1.00;;;;;;4978147;28;20950;-84
2022/07/03 11:49:24;;;;;;;5.90;1.70;;;30.90;1.00;;;;;;4978144;28;20461;-84
2022/07/03 11:51:59;;;;;;;4.90;1.60;;;30.40;1.00;;;;;;4976995;28;20469;-84
2022/07/03 11:54:30;;;;;;;4.80;1.50;;;30.40;1.00;;;;;;4975837;28;20459;-84
2022/07/03 11:56:57;;;;;;;4.70;1.53;;;30.80;1.00;;;;;;4976242;28;20459;-84
2022/07/03 11:59:23;;;;;;;4.70;1.40;;;31.60;1.00;;;;;;4977223;28;20455;-83
2022/07/03 12:01:50;;;;;;;4.70;1.37;;;30.70;1.00;;;;;;4977381;28;20459;-84
2022/07/03 12:04:18;;;;;;;5.13;1.40;;;30.50;1.00;;;;;;4977035;28;20479;-83
2022/07/03 12:06:48;;;;;;;7.27;1.80;;;30.40;1.00;;;;;;4978170;28;20429;-83
2022/07/03 12:09:19;;;;;;;5.50;1.50;;;30.70;1.00;;;;;;4977445;28;20570;-84
2022/07/03 12:11:55;;;;;;;4.10;1.10;;;31.20;1.00;;;;;;4976667;28;20462;-84
2022/07/03 12:14:44;;;;;;;5.20;1.20;;;31.10;1.00;;;;;;4976461;28;20455;-84
2022/07/03 12:17:12;;;;;;;5.63;3.00;;;31.20;1.00;;;;;;4976828;28;20449;-85
2022/07/03 12:19:45;;;;;;;4.20;1.00;;;31.40;1.00;;;;;;4977511;28;20948;-84
2022/07/03 12:22:12;;;;;;;4.37;1.33;;;31.30;1.00;;;;;;4973291;28;20455;-84
2022/07/03 12:24:41;;;;;;;4.33;1.17;;;30.80;1.00;;;;;;4974769;28;20441;-84
2022/07/03 12:27:08;;;;;;;4.03;1.00;;;30.70;1.00;;;;;;4977389;28;20455;-84
2022/07/03 12:29:36;;;;;;;4.67;1.40;;;29.60;1.00;;;;;;4975446;28;20460;-84
2022/07/03 12:32:10;;;;;;;4.50;1.20;;;30.50;1.00;;;;;;4976790;28;20451;-84
2022/07/03 12:34:38;;;;;;;10.27;1.40;;;31.20;1.00;;;;;;4975164;28;21034;-84
2022/07/03 12:37:05;;;;;;;4.00;1.10;;;31.40;1.00;;;;;;4975754;28;20512;-84
2022/07/03 12:39:48;;;;;;;7.13;1.50;;;31.50;1.00;;;;;;4977551;28;20441;-84
2022/07/03 12:42:16;;;;;;;4.30;1.67;;;30.50;1.00;;;;;;4978277;28;20484;-83
2022/07/03 12:44:43;;;;;;;4.50;1.30;;;30.40;1.00;;;;;;4978036;28;20451;-84
2022/07/03 12:47:09;;;;;;;6.37;1.50;;;30.30;1.00;;;;;;4978892;28;20463;-84
2022/07/03 12:49:36;;;;;;;8.30;1.60;;;30.50;1.00;;;;;;4978521;28;20478;-83
2022/07/03 12:52:03;;;;;;;5.10;1.50;;;29.30;1.00;;;;;;4979157;28;20462;-84
2022/07/03 12:54:33;;;;;;;5.23;1.93;;;28.60;1.00;;;;;;4977873;28;20994;-84
2022/07/03 12:59:16;;;;;;;5.93;1.60;;;28.70;1.00;;;;;;4979201;28;20466;-84
2022/07/03 13:00:04;;;;;;;6.73;1.50;;;29.00;1.00;;;;;;4978445;28;20455;-84
2022/07/03 13:02:30;;;;;;;5.60;1.37;;;30.30;1.00;;;;;;4979097;28;20501;-83
2022/07/03 13:04:59;;;;;;;7.50;1.50;;;29.10;1.00;;;;;;4978342;28;20437;-84
2022/07/03 13:07:29;;;;;;;4.00;1.20;;;29.60;1.00;;;;;;4978183;28;20433;-84
2022/07/03 13:09:56;;;;;;;6.93;1.70;;;29.80;1.00;;;;;;4978623;28;20453;-85
2022/07/03 13:12:24;;;;;;;6.10;1.20;;;28.90;1.00;;;;;;4978437;28;20478;-83
2022/07/03 13:14:58;;;;;;;4.30;1.40;;;28.70;1.00;;;;;;4978771;28;20497;-84